Weather at Hastings Field

Public forecast

Using degrees Celsius for public forecast. Weather courtesy of forecast.io.

Closest aviation weather report (METAR) to Hastings Field

Closest report is Victoria International Airport, 9.9 nm (18.3 km) SW. Retrieved 2020/11/28 16:00 UTC (19 minutes ago):

CYYJ 281600Z 30005KT 30SM SCT032 BKN046 05/04 A3030 RMK SC4SC1 SLP262

Closest aviation forecast (TAF) to Hastings Field

Closest forecast is Victoria International Airport, 9.9 nm (18.3 km) SW. Retrieved 2020/11/28 12:39 UTC (4 hours ago):

TAF CYYJ 281138Z 2812/2912 24006KT P6SM FEW020 FM290000 VRB03KT P6SM SCT020 FM290900 VRB03KT P6SM SCT008 RMK NXT FCST BY 281800Z